Home > Products > Valid Products > TAF

000
FTUS43 KLMK 301124
TAFSDF
TAF
KSDF 301124Z 3012/0118 08008KT P6SM BKN070 OVC100
     FM301300 08008KT P6SM -SHRA BKN050 OVC070
     FM301500 12008KT 5SM -SHRA VCTS BKN030CB
     FM302000 16012G22KT P6SM -SHRA VCTS BKN025CB
     FM010000 17010KT P6SM VCSH SCT040 BKN080
     FM010600 21006KT P6SM SCT040 BKN090=



000
FTUS43 KLMK 301124
TAFBWG
TAF
KBWG 301124Z 3012/0112 08007KT P6SM VCSH BKN070 OVC100
      TEMPO 3013/3015 3SM -SHRA BKN040
     FM302000 14006KT P6SM VCSH SCT040 OVC080
      TEMPO 0102/0106 3SM -TSRA SCT025 OVC040CB
     FM010600 21006KT P6SM BKN025=



000
FTUS43 KLMK 301124
TAFLEX
TAF
KLEX 301124Z 3012/0112 07008KT P6SM VCSH SCT060 OVC090
     FM301800 16012G22KT P6SM -SHRA VCTS BKN040CB
      TEMPO 3022/0102 4SM -TSRA BKN020 OVC040CB
     FM010600 19008KT P6SM BKN025=



000
FTUS43 KLMK 301124
TAFBWG
TAF
KBWG 301124Z 3012/0112 08007KT P6SM VCSH BKN070 OVC100
      TEMPO 3013/3015 3SM -SHRA BKN040
     FM302000 14006KT P6SM VCSH SCT040 OVC080
      TEMPO 0102/0106 3SM -TSRA SCT025 OVC040CB
     FM010600 21006KT P6SM BKN025=



000
FTUS43 KLMK 301124
TAFLEX
TAF
KLEX 301124Z 3012/0112 07008KT P6SM VCSH SCT060 OVC090
     FM301800 16012G22KT P6SM -SHRA VCTS BKN040CB
      TEMPO 3022/0102 4SM -TSRA BKN020 OVC040CB
     FM010600 19008KT P6SM BKN025=



000
FTUS43 KLMK 301124
TAFSDF
TAF
KSDF 301124Z 3012/0118 08008KT P6SM BKN070 OVC100
     FM301300 08008KT P6SM -SHRA BKN050 OVC070
     FM301500 12008KT 5SM -SHRA VCTS BKN030CB
     FM302000 16012G22KT P6SM -SHRA VCTS BKN025CB
     FM010000 17010KT P6SM VCSH SCT040 BKN080
     FM010600 21006KT P6SM SCT040 BKN090=



000
FTUS43 KLMK 300539
TAFLEX
TAF
KLEX 300539Z 3006/0106 07008KT P6SM VCSH SCT060 OVC090
     FM301800 16012G22KT P6SM -SHRA VCTS BKN040CB
      TEMPO 3022/0102 4SM -TSRA BKN020 OVC040CB=



000
FTUS43 KLMK 300539
TAFSDF
TAF
KSDF 300539Z 3006/0112 09007KT P6SM VCSH BKN070 OVC090
     FM301000 08008KT P6SM BKN050 OVC090
     FM301500 12008KT P6SM -SHRA VCTS BKN040CB
     FM302000 16012G22KT P6SM -SHRA VCTS BKN022CB
     FM010000 17010KT P6SM -SHRA OVC040
     FM010600 21006KT P6SM SCT025 BKN040=



000
FTUS43 KLMK 300539
TAFBWG
TAF
KBWG 300539Z 3006/0106 07005KT P6SM SCT070 BKN100
     FM301600 12006KT 5SM -SHRA BKN040 OVC080
     FM302000 14006KT P6SM VCSH SCT040 OVC080
      TEMPO 0102/0106 3SM -TSRA SCT025 OVC040CB=



000
FTUS43 KLMK 292320
TAFBWG
TAF
KBWG 292320Z 3000/3024 05004KT P6SM OVC100
     FM300600 09004KT P6SM -SHRA VCTS BKN060CB
     FM301600 15012G22KT P6SM -SHRA VCTS OVC040CB=



000
FTUS43 KLMK 292320
TAFSDF
TAF
KSDF 292320Z 3000/0106 VRB04KT P6SM OVC130
     FM300700 09007KT P6SM -SHRA VCTS BKN060CB
     FM301600 12008KT P6SM -SHRA VCTS BKN040CB
     FM302000 16012G22KT P6SM -SHRA VCTS BKN022CB
     FM010000 17010KT P6SM -SHRA OVC040=



000
FTUS43 KLMK 292320
TAFLEX
TAF
KLEX 292320Z 3000/3024 VRB04KT P6SM OVC150
     FM300900 09009KT P6SM VCSH BKN060
     FM301600 16012G22KT P6SM -SHRA VCTS BKN040CB=



000
FTUS43 KLMK 292010 AAA
TAFBWG
TAF AMD
KBWG 292010Z 2920/3018 VRB04KT P6SM BKN250
     FM292230 05006KT 6SM -SHRA BKN060
     FM300300 08007KT P6SM VCSH BKN050
     FM300700 09007KT P6SM -SHRA BKN040
     FM301300 11010KT 5SM -SHRA VCTS BKN025CB
     FM301700 17010KT P6SM VCSH BKN025=



000
FTUS43 KLMK 291734
TAFBWG
TAF
KBWG 291734Z 2918/3018 VRB04KT P6SM BKN250
     FM292300 05006KT P6SM VCSH BKN080
     FM300700 09007KT P6SM -SHRA BKN040
     FM301300 11010KT 5SM -SHRA VCTS BKN025CB
     FM301700 17010KT P6SM VCSH BKN025=



000
FTUS43 KLMK 291734
TAFLEX
TAF
KLEX 291734Z 2918/3018 33006KT P6SM BKN250
     FM300000 VRB04KT P6SM FEW040 BKN100
     FM300800 08009KT P6SM VCSH BKN040
     FM301400 11010KT 5SM -SHRA BKN025=



000
FTUS43 KLMK 291734
TAFSDF
TAF
KSDF 291734Z 2918/3024 36006KT P6SM BKN250
     FM300200 01007KT P6SM VCSH BKN080
     FM300800 08009KT P6SM -SHRA BKN040
     FM301300 12010KT 5SM -SHRA VCTS BKN025CB
      TEMPO 3014/3018 3SM -TSRA BKN015CB
     FM301800 12007KT P6SM VCSH BKN025=



000
FTUS43 KLMK 291734
TAFLEX
TAF
KLEX 291734Z 2918/3018 33006KT P6SM BKN250
     FM300000 VRB04KT P6SM FEW040 BKN100
     FM300800 08009KT P6SM VCSH BKN040
     FM301400 11010KT 5SM -SHRA BKN025=



000
FTUS43 KLMK 291121
TAFSDF
TAF
KSDF 291121Z 2912/3018 29005KT P6SM BKN250
     FM292300 01007KT P6SM BKN040
     FM300700 08009KT P6SM -SHRA BKN040=



000
FTUS43 KLMK 291121
TAFBWG
TAF
KBWG 291121Z 2912/3012 VRB04KT P6SM BKN250
     FM300100 05006KT P6SM BKN040
     FM300700 09007KT P6SM -SHRA BKN040=



000
FTUS43 KLMK 291121
TAFLEX
TAF
KLEX 291121Z 2912/3012 27007KT P6SM SCT250
     FM300000 VRB04KT P6SM FEW040 BKN100
     FM300800 08009KT P6SM VCSH BKN040=



000
FTUS43 KLMK 291121
TAFBWG
TAF
KBWG 291121Z 2912/3012 VRB04KT P6SM BKN250
     FM300100 05006KT P6SM BKN040
     FM300700 09007KT P6SM -SHRA BKN040=



000
FTUS43 KLMK 291121
TAFLEX
TAF
KLEX 291121Z 2912/3012 27007KT P6SM SCT250
     FM300000 VRB04KT P6SM FEW040 BKN100
     FM300800 08009KT P6SM VCSH BKN040=



000
FTUS43 KLMK 290524
TAFBWG
TAF
KBWG 290524Z 2906/3006 VRB04KT P6SM SCT250
     FM300200 08006KT P6SM VCSH BKN040=



000
FTUS43 KLMK 290524
TAFSDF
TAF
KSDF 290524Z 2906/3012 29005KT P6SM SCT250
     FM300100 04005KT P6SM VCSH BKN040=



000
FTUS43 KLMK 290524
TAFLEX
TAF
KLEX 290524Z 2906/3006 26005KT P6SM SKC
     FM292100 31008KT P6SM SCT040 BKN100=



000
FTUS43 KLMK 282320
TAFBWG
TAF
KBWG 282320Z 2900/2924 27009G15KT P6SM SKC
     FM290200 26004KT P6SM SKC
     FM291500 15004KT P6SM SCT100=



000
FTUS43 KLMK 282320
TAFSDF
TAF
KSDF 282320Z 2900/3006 28013G21KT P6SM FEW070 SCT250
     FM290200 29008KT P6SM SKC
     FM291500 27005KT P6SM SCT100=



000
FTUS43 KLMK 282320
TAFLEX
TAF
KLEX 282320Z 2900/2924 26013G22KT P6SM FEW070
     FM290200 24007KT P6SM SKC
     FM291500 25005KT P6SM SCT100=



000
FTUS43 KLMK 281725 CCA
TAFSDF
TAF COR
KSDF 281725Z 2818/2924 26013G20KT P6SM VCSH FEW025 BKN060
     FM290000 28008KT P6SM SKC
     FM291500 27005KT P6SM SCT100=



000
FTUS43 KLMK 281725 CCA
TAFLEX
TAF COR
KLEX 281725Z 2818/2918 23014G21KT P6SM VCSH SCT025 BKN050
     FM290000 26006KT P6SM SKC
     FM291500 25005KT P6SM SCT100=



000
FTUS43 KLMK 281722
TAFLEX
TAF
KLEX 281722Z 2818/2918 23014G21KT P6SM SCT025 BKN050
     FM290000 26006KT P6SM SKC
     FM291500 25005KT P6SM SCT100=



000
FTUS43 KLMK 281722
TAFSDF
TAF
KSDF 281722Z 2818/2924 26013G20KT P6SM FEW025 BKN060
     FM290000 28008KT P6SM SKC
     FM291500 27005KT P6SM SCT100=



000
FTUS43 KLMK 281722
TAFBWG
TAF
KBWG 281722Z 2818/2918 26013G18KT P6SM FEW025 BKN100
     FM290000 27004KT P6SM SKC
     FM291500 15004KT P6SM SCT100=



000
FTUS43 KLMK 281122
TAFSDF
TAF
KSDF 281122Z 2812/2918 14007KT P6SM VCSH FEW006 BKN040
      TEMPO 2812/2814 BKN028
     FM281600 26015G22KT P6SM FEW025 BKN100
     FM290000 28008KT P6SM SCT250=



000
FTUS43 KLMK 281122
TAFBWG
TAF
KBWG 281122Z 2812/2912 22007KT P6SM SCT015 BKN040
      TEMPO 2812/2815 BKN015
     FM281600 26013G20KT P6SM FEW025 SCT250
     FM290000 27005KT P6SM FEW250=



000
FTUS43 KLMK 281122
TAFLEX
TAF
KLEX 281122Z 2812/2912 19007KT P6SM SCT008 BKN040
      TEMPO 2812/2814 BKN008
     FM281600 24014G21KT P6SM SCT015 BKN035
     FM290000 26006KT P6SM SCT250=



000
FTUS43 KLMK 280959 AAB
TAFLEX
TAF AMD
KLEX 280959Z 2810/2906 19007KT 6SM -SHRA BR SCT005 OVC035
     FM281200 20007KT 5SM BR FEW005 BKN015
     FM281600 24014G21KT P6SM SCT015 BKN035
     FM290000 26006KT P6SM SCT250=



000
FTUS43 KLMK 280737 AAA
TAFBWG
TAF AMD
KBWG 280737Z 2808/2906 14005KT P6SM VCSH SCT008 BKN015
     FM280900 22004KT 5SM BR BKN008
     FM281400 22008KT 5SM BR BKN015
     FM281700 26013G20KT P6SM FEW025 SCT250
     FM290000 27005KT P6SM FEW250=



000
FTUS43 KLMK 280736 AAA
TAFSDF
TAF AMD
KSDF 280736Z 2808/2912 16007KT 6SM BR BKN005 OVC035
     FM281300 24010KT P6SM BKN015
     FM281600 26015G22KT P6SM FEW025 BKN100
     FM290000 28008KT P6SM SCT250=



000
FTUS43 KLMK 280734 AAA
TAFLEX
TAF AMD
KLEX 280734Z 2808/2906 VRB05KT 6SM BR BKN003 OVC030
     FM281200 20007KT 5SM BR FEW003 BKN015
     FM281600 24014G21KT P6SM SCT015 BKN035
     FM290000 26006KT P6SM SCT250=



000
FTUS43 KLMK 280521
TAFLEX
TAF
KLEX 280521Z 2806/2906 VRB05KT 6SM -RA BR BKN070
     FM280900 17006KT 5SM BR BKN015
     FM281600 24014G21KT P6SM SCT015 BKN035
     FM290000 26006KT P6SM SCT250=



000
FTUS43 KLMK 280521
TAFSDF
TAF
KSDF 280521Z 2806/2912 VRB06KT P6SM -SHRA FEW008 FEW015 BKN070
     FM280800 16006KT 6SM BR VCSH FEW008 BKN015
     FM281300 24010KT P6SM BKN025
     FM281600 26015G22KT P6SM FEW025 BKN100
     FM290000 28008KT P6SM SCT250=



000
FTUS43 KLMK 280521
TAFBWG
TAF
KBWG 280521Z 2806/2906 14005KT P6SM -SHRA VCTS SCT025CB BKN080
     FM280900 22004KT 5SM BR BKN015
     FM281100 23004KT 3SM BR BKN007
     FM281400 22008KT 5SM BR BKN015
     FM281700 26013G20KT P6SM FEW025 SCT250
     FM290000 27005KT P6SM FEW250=



000
FTUS43 KLMK 280201 AAA
TAFLEX
TAF AMD
KLEX 280201Z 2802/2824 20009KT 5SM -TSRA BKN035CB
      TEMPO 2803/2804 3SM TSRA BKN015CB
     FM280500 20008KT 5SM BR VCSH BKN015
     FM280900 20009KT 5SM BR BKN008
     FM281300 23010KT P6SM BKN015
     FM281800 25014G21KT P6SM SCT015 BKN025=



000
FTUS43 KLMK 280201 AAA
TAFLEX
TAF AMD
KLEX 280201Z 2802/2824 20009KT 5SM -TSRA BKN035CB
      TEMPO 2803/2804 3SM TSRA BKN015CB
     FM280500 20008KT 5SM BR VCSH BKN015
     FM280900 20009KT 5SM BR BKN008
     FM281300 23010KT P6SM BKN015
     FM281800 25014G21KT P6SM SCT015 BKN025=



000
FTUS43 KLMK 280200 AAB
TAFSDF
TAF AMD
KSDF 280200Z 2802/2906 14008KT 6SM -SHRA VCTS BKN035CB
      TEMPO 2802/2803 27015G35KT 3SM +TSRA BKN015CB
     FM280400 VRB06KT P6SM VCSH BKN035
     FM280700 22007KT P6SM BKN015
     FM281300 24010KT P6SM BKN025
     FM281900 27015G22KT P6SM SCT025=



000
FTUS43 KLMK 280058 AAB
TAFBWG
TAF AMD
KBWG 280058Z 2801/2824 18006KT P6SM VCSH BKN035
     FM280600 21005KT P6SM BKN015
     FM280900 22004KT 3SM BR BKN007
     FM281400 22008KT 5SM BR BKN015
     FM281900 26013G20KT P6SM SCT025=



000
FTUS43 KLMK 280048 AAA
TAFSDF
TAF AMD
KSDF 280048Z 2801/2906 14008KT 6SM -SHRA VCTS BKN035CB
      TEMPO 2801/2803 27015G35KT 1SM +TSRA BKN015CB
     FM280400 VRB06KT P6SM VCSH BKN025
     FM280700 22007KT P6SM BKN008
     FM281300 24010KT P6SM BKN015
     FM281900 27015G22KT P6SM SCT025=



000
FTUS43 KLMK 280048 AAA
TAFSDF
TAF AMD
KSDF 280048Z 2801/2906 14008KT 6SM -SHRA VCTS BKN035CB
      TEMPO 2801/2803 27015G35KT 1SM +TSRA BKN015CB
     FM280400 VRB06KT P6SM VCSH BKN025
     FM280700 22007KT P6SM BKN008
     FM281300 24010KT P6SM BKN015
     FM281900 27015G22KT P6SM SCT025=



000
FTUS43 KLMK 272351 AAA
TAFBWG
TAF AMD
KBWG 272351Z 2800/2824 18006KT 4SM -TSRA BR BKN035CB
      TEMPO 2800/2802 24020G33KT 2SM TSRA BKN015CB
     FM280300 19005KT P6SM VCSH BKN025
     FM280600 21005KT P6SM BKN015
     FM280900 22004KT 3SM BR BKN007
     FM281400 22008KT 5SM BR BKN015
     FM281900 26013G20KT P6SM SCT025=



000
FTUS43 KLMK 272351 AAA
TAFBWG
TAF AMD
KBWG 272351Z 2800/2824 18006KT 4SM -TSRA BR BKN035CB
      TEMPO 2800/2802 24020G33KT 2SM TSRA BKN015CB
     FM280300 19005KT P6SM VCSH BKN025
     FM280600 21005KT P6SM BKN015
     FM280900 22004KT 3SM BR BKN007
     FM281400 22008KT 5SM BR BKN015
     FM281900 26013G20KT P6SM SCT025=



000
FTUS43 KLMK 272324
TAFLEX
TAF
KLEX 272324Z 2800/2824 19012KT P6SM VCSH BKN035
     FM280200 20009KT 4SM -TSRA BKN035CB
      TEMPO 2803/2806 2SM TSRA BKN015CB
     FM280600 20008KT 5SM BR VCSH BKN015
     FM280900 20009KT 5SM BR BKN008
     FM281300 23010KT P6SM BKN015
     FM281800 25014G21KT P6SM SCT015 BKN025=



000
FTUS43 KLMK 272324
TAFBWG
TAF
KBWG 272324Z 2800/2824 18006KT 4SM -TSRA BR BKN035CB
      TEMPO 2800/2802 2SM TSRA BKN015CB
     FM280300 19005KT P6SM VCSH BKN025
     FM280600 21005KT P6SM BKN015
     FM280900 22004KT 3SM BR BKN007
     FM281400 22008KT 5SM BR BKN015
     FM281900 26013G20KT P6SM SCT025=



000
FTUS43 KLMK 272324
TAFSDF
TAF
KSDF 272324Z 2800/2906 14008KT 6SM -SHRA VCTS BKN035CB
      TEMPO 2801/2803 1SM +TSRA BKN015CB
     FM280400 VRB06KT P6SM VCSH BKN025
     FM280700 22007KT P6SM BKN008
     FM281300 24010KT P6SM BKN015
     FM281900 27015G22KT P6SM SCT025=



000
FTUS43 KLMK 272202 AAC
TAFSDF
TAF AMD
KSDF 272202Z 2722/2824 15008KT P6SM VCSH SCT008 BKN025
     FM280000 22010G25KT 3SM -TSRA BR BKN035CB
     FM280400 VRB06KT P6SM VCSH BKN035
     FM280700 22007KT P6SM BKN015
     FM281500 25012G20KT P6SM SCT025=



000
FTUS43 KLMK 272202 AAC
TAFSDF
TAF AMD
KSDF 272202Z 2722/2824 15008KT P6SM VCSH SCT008 BKN025
     FM280000 22010G25KT 3SM -TSRA BR BKN035CB
     FM280400 VRB06KT P6SM VCSH BKN035
     FM280700 22007KT P6SM BKN015
     FM281500 25012G20KT P6SM SCT025=



000
FTUS43 KLMK 272106 AAB
TAFSDF
TAF AMD
KSDF 272106Z 2721/2824 15008KT P6SM VCSH BKN007 BKN025
     FM280000 22010G25KT 3SM -TSRA BR BKN035CB
     FM280400 VRB06KT P6SM VCSH BKN035
     FM280700 22007KT P6SM BKN015
     FM281500 25012G20KT P6SM SCT025=



000
FTUS43 KLMK 272026 AAA
TAFLEX
TAF AMD
KLEX 272026Z 2720/2818 18008KT 6SM -SHRA BKN035
      TEMPO 2720/2722 3SM RA BKN012
     FM272200 15010KT 4SM -TSRA BR BKN035CB
     FM280000 19012KT P6SM BKN035
     FM280200 20009KT 3SM -TSRA BKN035CB
     FM280600 20008KT P6SM VCSH BKN015=



000
FTUS43 KLMK 272026 AAA
TAFLEX
TAF AMD
KLEX 272026Z 2720/2818 18008KT 6SM -SHRA BKN035
      TEMPO 2720/2722 3SM RA BKN012
     FM272200 15010KT 4SM -TSRA BR BKN035CB
     FM280000 19012KT P6SM BKN035
     FM280200 20009KT 3SM -TSRA BKN035CB
     FM280600 20008KT P6SM VCSH BKN015=



000
FTUS43 KLMK 272025 AAA
TAFSDF
TAF AMD
KSDF 272025Z 2720/2824 15008KT P6SM VCSH SCT008 BKN025
     FM280000 22010G25KT 3SM -TSRA BR BKN035CB
     FM280400 VRB06KT P6SM VCSH BKN035
     FM280700 22007KT P6SM BKN015
     FM281500 25012G20KT P6SM SCT025=



000
FTUS43 KLMK 271724
TAFLEX
TAF
KLEX 271724Z 2718/2818 18008KT 6SM -SHRA BKN035
     FM272100 15010KT 4SM -TSRA BR BKN035CB
     FM280000 19012KT P6SM BKN035
     FM280200 20009KT 3SM -TSRA BKN035CB
     FM280600 20008KT P6SM VCSH BKN015=



000
FTUS43 KLMK 271724
TAFBWG
TAF
KBWG 271724Z 2718/2818 19010KT P6SM SCT080 SCT250
     FM272000 19007KT P6SM -SHRA VCTS SCT035CB SCT080 BKN250
      TEMPO 2721/2723 3SM -TSRA BR BKN035CB
     FM272300 18006KT 3SM -TSRA BR BKN035CB
     FM280100 18006KT P6SM SCT050 BKN150
     FM280300 19005KT P6SM VCTS BKN035CB
     FM280600 21005KT P6SM BKN015=



000
FTUS43 KLMK 271724
TAFSDF
TAF
KSDF 271724Z 2718/2824 15009KT 3SM -TSRA BR BKN015CB BKN100
     FM271900 16008KT 6SM -SHRA BKN025
     FM280000 22010G25KT 3SM -TSRA BR BKN035CB
     FM280400 VRB06KT P6SM VCSH BKN035
     FM280700 22007KT P6SM BKN015
     FM281500 25012G20KT P6SM SCT025=



000
FTUS43 KLMK 271704 AAG
TAFSDF
TAF AMD
KSDF 271704Z 2717/2818 15009KT 3SM -TSRA BR BKN018CB BKN100
     FM271900 16008KT 6SM -SHRA BKN025
     FM280000 22010G25KT 3SM -TSRA BKN035CB
     FM280400 VRB06KT P6SM VCSH BKN035
     FM280700 22007KT P6SM BKN015
     FM281500 25012G20KT P6SM SCT025=



000
FTUS43 KLMK 271552 AAA
TAFLEX
TAF AMD
KLEX 271552Z 2716/2812 20008KT 6SM -SHRA BKN015
     FM271900 20008KT P6SM VCTS SCT025CB BKN050
     FM280500 16007KT P6SM -SHRA BKN030=



000
FTUS43 KLMK 271552 AAA
TAFLEX
TAF AMD
KLEX 271552Z 2716/2812 20008KT 6SM -SHRA BKN015
     FM271900 20008KT P6SM VCTS SCT025CB BKN050
     FM280500 16007KT P6SM -SHRA BKN030=



000
FTUS43 KLMK 271529 AAF
TAFSDF
TAF AMD
KSDF 271529Z 2715/2818 15009KT 5SM SHRA VCTS BKN015CB BKN100
     FM271900 16008KT P6SM VCSH BKN035
     FM272300 17007KT P6SM VCTS BKN035CB
     FM280500 21009KT P6SM SCT050=



000
FTUS43 KLMK 271529 AAF
TAFSDF
TAF AMD
KSDF 271529Z 2715/2818 15009KT 5SM SHRA VCTS BKN015CB BKN100
     FM271900 16008KT P6SM VCSH BKN035
     FM272300 17007KT P6SM VCTS BKN035CB
     FM280500 21009KT P6SM SCT050=



000
FTUS43 KLMK 271512 AAA
TAFBWG
TAF AMD
KBWG 271512Z 2715/2812 19011KT P6SM VCTS SCT040CB BKN250
     FM271800 18011KT P6SM SCT040 BKN250
     FM272000 19010KT P6SM -SHRA VCTS BKN035CB
     FM280200 VRB04KT P6SM SCT050 BKN150=



000
FTUS43 KLMK 271512 AAA
TAFBWG
TAF AMD
KBWG 271512Z 2715/2812 19011KT P6SM VCTS SCT040CB BKN250
     FM271800 18011KT P6SM SCT040 BKN250
     FM272000 19010KT P6SM -SHRA VCTS BKN035CB
     FM280200 VRB04KT P6SM SCT050 BKN150=



000
FTUS43 KLMK 271501 AAE
TAFSDF
TAF AMD
KSDF 271501Z 2715/2818 21008KT 5SM -SHRA VCTS BKN015CB BKN100
     FM271530 17008KT P6SM SCT035 BKN100
     FM271900 17008KT 5SM SHRA VCTS BKN035CB
     FM280300 17005KT P6SM -SHRA BKN035=



000
FTUS43 KLMK 271430 AAD
TAFSDF
TAF AMD
KSDF 271430Z 2715/2818 21008KT 5SM -SHRA VCTS SCT035CB BKN100
     FM271530 17008KT P6SM SCT035 BKN100
     FM271900 17008KT 5SM SHRA VCTS BKN035CB
     FM280300 17005KT P6SM -SHRA BKN035=



000
FTUS43 KLMK 271322 AAC
TAFSDF
TAF AMD
KSDF 271322Z 2713/2818 17009KT P6SM FEW010 SCT060
     FM271530 21008KT 4SM -TSRA SCT035CB BKN100
     FM271630 17008KT P6SM SCT035 BKN100
     FM271900 17008KT 5SM SHRA VCTS BKN035CB
     FM280300 17005KT P6SM -SHRA BKN035=



000
FTUS43 KLMK 271322 AAC
TAFSDF
TAF AMD
KSDF 271322Z 2713/2818 17009KT P6SM FEW010 SCT060
     FM271530 21008KT 4SM -TSRA SCT035CB BKN100
     FM271630 17008KT P6SM SCT035 BKN100
     FM271900 17008KT 5SM SHRA VCTS BKN035CB
     FM280300 17005KT P6SM -SHRA BKN035=



    US Dept of Commerce
    National Oceanic and Atmospheric Administration
    National Weather Service
    1325 East West Highway
    Silver Spring, MD 20910
    Page Author: NWS Internet Services Team
Disclaimer
Information Quality
Credits
Glossary
Privacy Policy
Freedom of Information Act (FOIA)
About Us
Career Opportunities